createdAt,value
2023-01-21T00:00:29.825Z,1.14
2023-01-21T00:05:32.468Z,1.28
2023-01-21T00:10:35.106Z,1.20
2023-01-21T00:15:37.845Z,1.11
2023-01-21T00:20:40.478Z,1.23
2023-01-21T00:25:43.060Z,0.98
2023-01-21T00:30:45.699Z,1.02
2023-01-21T00:36:00.491Z,1.02
2023-01-21T00:41:08.889Z,1.01
2023-01-21T00:46:11.884Z,0.85
2023-01-21T00:51:14.598Z,0.86
2023-01-21T00:56:17.172Z,0.92
2023-01-21T01:01:21.263Z,0.94
2023-01-21T01:06:24.552Z,0.90
2023-01-21T01:11:28.184Z,0.71
2023-01-21T01:16:30.882Z,0.83
2023-01-21T01:21:33.604Z,0.87
2023-01-21T01:26:36.458Z,0.81
2023-01-21T01:31:39.534Z,0.76
2023-01-21T01:36:42.301Z,0.71
2023-01-21T01:41:44.950Z,0.69
2023-01-21T01:46:47.660Z,0.78
2023-01-21T01:52:03.211Z,0.65
2023-01-21T01:57:09.531Z,0.40
2023-01-21T02:02:16.141Z,0.46
2023-01-21T02:07:20.124Z,0.63
2023-01-21T02:12:23.272Z,0.60
2023-01-21T02:17:44.526Z,0.56
2023-01-21T02:23:13.015Z,0.57
2023-01-21T02:28:47.976Z,0.43
2023-01-21T02:34:06.365Z,0.43
2023-01-21T02:39:31.814Z,0.41
2023-01-21T02:44:46.903Z,0.43
2023-01-21T02:49:59.616Z,0.36
2023-01-21T02:55:03.587Z,0.30
2023-01-21T03:00:13.129Z,0.13
2023-01-21T03:05:18.471Z,0.22
2023-01-21T03:10:45.555Z,0.18
2023-01-21T03:16:15.714Z,0.14
2023-01-21T03:21:25.553Z,0.16
2023-01-21T03:26:35.912Z,0.11
2023-01-21T03:31:42.845Z,0.05
2023-01-21T03:36:53.512Z,-0.23
2023-01-21T03:41:56.212Z,-0.06
2023-01-21T03:47:01.468Z,-0.12
2023-01-21T03:52:06.606Z,-0.16
2023-01-21T03:57:09.190Z,-0.26
2023-01-21T04:02:12.258Z,-0.37
2023-01-21T04:07:17.880Z,-0.43
2023-01-21T04:12:20.462Z,-0.61
2023-01-21T04:17:23.059Z,-0.67
2023-01-21T04:22:25.773Z,-0.62
2023-01-21T04:27:28.344Z,-0.65
2023-01-21T04:32:30.870Z,-0.73
2023-01-21T04:37:33.468Z,-0.77
2023-01-21T04:42:35.981Z,-0.86
2023-01-21T04:47:45.010Z,-0.91
2023-01-21T04:52:47.554Z,-0.90
2023-01-21T04:57:50.089Z,-0.98
2023-01-21T05:02:52.594Z,-0.98
2023-01-21T05:07:55.757Z,-0.99
2023-01-21T05:12:59.147Z,-0.98
2023-01-21T05:18:01.701Z,-1.13
2023-01-21T05:23:04.461Z,-1.20
2023-01-21T05:28:07.035Z,-1.16
2023-01-21T05:33:09.575Z,-1.25
2023-01-21T05:38:12.133Z,-1.20
2023-01-21T05:43:14.678Z,-1.29
2023-01-21T05:48:17.211Z,-1.25
2023-01-21T05:53:19.826Z,-1.28
2023-01-21T05:58:23.584Z,-1.30
2023-01-21T06:03:26.457Z,-1.42
2023-01-21T06:08:29.286Z,-1.33
2023-01-21T06:13:31.902Z,-1.43
2023-01-21T06:18:35.217Z,-1.40
2023-01-21T06:23:37.866Z,-1.44
2023-01-21T06:28:40.549Z,-1.32
2023-01-21T06:33:43.070Z,-1.20
2023-01-21T06:38:45.591Z,-1.26
2023-01-21T06:43:48.165Z,-1.25
2023-01-21T06:48:52.143Z,-1.24
2023-01-21T06:53:54.772Z,-1.16
2023-01-21T06:58:57.424Z,-1.02
2023-01-21T07:04:01.590Z,-1.16
2023-01-21T07:09:05.361Z,-1.11
2023-01-21T07:14:08.017Z,-1.00
2023-01-21T07:19:11.778Z,-0.98
2023-01-21T07:24:14.292Z,-1.09
2023-01-21T07:29:17.041Z,-0.92
2023-01-21T07:34:19.705Z,-0.92
2023-01-21T07:39:22.265Z,-0.88
2023-01-21T07:44:24.878Z,-0.75
2023-01-21T07:49:27.394Z,-0.62
2023-01-21T07:54:30.004Z,-0.68
2023-01-21T07:59:32.541Z,-0.55
2023-01-21T08:04:35.116Z,-0.65
2023-01-21T08:09:37.771Z,-0.52
2023-01-21T08:14:40.327Z,-0.42
2023-01-21T08:19:42.886Z,-0.23
2023-01-21T08:24:45.758Z,-0.25
2023-01-21T08:29:48.773Z,-0.29
2023-01-21T08:34:51.360Z,-0.26
2023-01-21T08:39:53.938Z,-0.33
2023-01-21T08:44:56.456Z,-0.19
2023-01-21T08:49:59.013Z,-0.10
2023-01-21T08:55:01.759Z,-0.01
2023-01-21T09:00:06.247Z,-0.11
2023-01-21T09:05:08.973Z,-0.02
2023-01-21T09:10:12.304Z,0.28
2023-01-21T09:15:15.590Z,0.02
2023-01-21T09:20:18.452Z,-0.18
2023-01-21T09:25:23.169Z,-0.24
2023-01-21T09:30:25.990Z,0.04
2023-01-21T09:35:28.665Z,0.17
2023-01-21T09:40:31.354Z,0.05
2023-01-21T09:45:34.201Z,0.02
2023-01-21T09:50:40.156Z,0.31
2023-01-21T09:55:49.865Z,0.32
2023-01-21T10:00:58.942Z,0.46
2023-01-21T10:06:12.353Z,0.34
2023-01-21T10:11:34.510Z,0.28
2023-01-21T10:16:49.650Z,0.32
2023-01-21T10:22:03.978Z,0.17
2023-01-21T10:27:15.721Z,0.39
2023-01-21T10:32:23.023Z,0.30
2023-01-21T10:37:47.383Z,0.19
2023-01-21T10:43:03.404Z,0.17
2023-01-21T10:48:36.259Z,0.10
2023-01-21T10:53:58.529Z,0.23
2023-01-21T10:59:06.392Z,0.21
2023-01-21T11:04:19.808Z,0.12
2023-01-21T11:09:26.380Z,0.18
2023-01-21T11:14:29.265Z,0.05
2023-01-21T11:19:32.088Z,-0.12
2023-01-21T11:24:49.839Z,-0.26
2023-01-21T11:29:52.374Z,-0.23
2023-01-21T11:35:10.697Z,-0.46
2023-01-21T11:40:27.107Z,-0.41
2023-01-21T11:45:37.968Z,-0.46
2023-01-21T11:50:40.901Z,-0.41
2023-01-21T11:55:51.071Z,-0.33
2023-01-21T12:00:56.689Z,-0.31
2023-01-21T12:06:04.368Z,-0.37
2023-01-21T12:11:11.550Z,-0.52
2023-01-21T12:16:43.350Z,-0.64
2023-01-21T12:22:02.946Z,-0.55
2023-01-21T12:27:27.838Z,-0.98
2023-01-21T12:32:38.590Z,-1.08
2023-01-21T12:37:48.441Z,-1.09
2023-01-21T12:42:57.029Z,-1.09
2023-01-21T12:48:10.537Z,-1.41
2023-01-21T12:53:42.140Z,-1.30
2023-01-21T12:58:53.539Z,-1.43
2023-01-21T13:04:06.886Z,-1.48
2023-01-21T13:09:19.799Z,-1.51
2023-01-21T13:14:39.573Z,-1.50
2023-01-21T13:19:42.077Z,-1.79
2023-01-21T13:25:06.407Z,-1.75
2023-01-21T13:30:30.598Z,-1.86
2023-01-21T13:35:43.261Z,-2.00
2023-01-21T13:41:04.689Z,-1.93
2023-01-21T13:46:07.223Z,-1.91
2023-01-21T13:51:29.181Z,-1.92
2023-01-21T13:56:46.769Z,-2.01
2023-01-21T14:01:56.505Z,-2.17
2023-01-21T14:07:16.386Z,-2.25
2023-01-21T14:12:40.712Z,-2.19
2023-01-21T14:18:06.300Z,-2.25
2023-01-21T14:23:35.205Z,-2.06
2023-01-21T14:28:51.465Z,-2.19
2023-01-21T14:34:34.355Z,-2.17
2023-01-21T14:40:02.145Z,-2.09
2023-01-21T14:45:08.352Z,-2.29
2023-01-21T14:50:11.022Z,-2.43
2023-01-21T14:55:33.117Z,-2.71
2023-01-21T15:00:37.220Z,-2.67
2023-01-21T15:05:42.266Z,-2.74
2023-01-21T15:10:54.583Z,-2.66
2023-01-21T15:16:06.416Z,-2.78
2023-01-21T15:21:27.670Z,-2.96
2023-01-21T15:26:32.515Z,-2.94
2023-01-21T15:31:45.000Z,-3.28
2023-01-21T15:36:53.150Z,-3.23
2023-01-21T15:42:02.860Z,-3.21
2023-01-21T15:47:11.930Z,-3.14
2023-01-21T15:52:24.255Z,-3.08
2023-01-21T15:57:59.665Z,-2.97
2023-01-21T16:03:11.326Z,-3.07
2023-01-21T16:08:35.257Z,-3.10
2023-01-21T16:14:01.309Z,-3.25
2023-01-21T16:19:11.500Z,-3.08
2023-01-21T16:24:17.555Z,-2.98
2023-01-21T16:29:20.205Z,-2.94
2023-01-21T16:34:31.991Z,-3.04
2023-01-21T16:39:34.450Z,-3.14
2023-01-21T16:44:37.178Z,-3.17
2023-01-21T16:49:43.348Z,-3.15
2023-01-21T16:54:54.714Z,-3.35
2023-01-21T16:59:58.193Z,-3.43
2023-01-21T17:05:08.344Z,-3.55
2023-01-21T17:10:13.752Z,-3.56
2023-01-21T17:15:41.957Z,-3.77
2023-01-21T17:20:49.679Z,-3.69
2023-01-21T17:26:03.615Z,-3.68
2023-01-21T17:31:37.041Z,-3.72
2023-01-21T17:36:40.212Z,-3.68
2023-01-21T17:41:46.259Z,-3.57
2023-01-21T17:46:54.388Z,-3.67
2023-01-21T17:51:57.037Z,-3.71
2023-01-21T17:57:00.625Z,-3.82
2023-01-21T18:02:11.239Z,-3.94
2023-01-21T18:07:30.036Z,-3.98
2023-01-21T18:12:32.660Z,-4.18
2023-01-21T18:17:37.764Z,-4.47
2023-01-21T18:22:40.334Z,-4.39
2023-01-21T18:27:47.081Z,-4.33
2023-01-21T18:32:52.709Z,-4.32
2023-01-21T18:37:55.622Z,-4.23
2023-01-21T18:42:58.194Z,-4.32
2023-01-21T18:48:00.908Z,-4.32
2023-01-21T18:53:03.507Z,-4.27
2023-01-21T18:58:12.224Z,-4.12
2023-01-21T19:03:15.370Z,-4.14
2023-01-21T19:08:22.759Z,-4.14
2023-01-21T19:13:25.393Z,-4.24
2023-01-21T19:18:28.200Z,-4.34
2023-01-21T19:23:30.729Z,-4.24
2023-01-21T19:28:34.090Z,-4.30
2023-01-21T19:33:36.752Z,-4.45
2023-01-21T19:38:40.453Z,-4.14
2023-01-21T19:43:44.197Z,-4.06
2023-01-21T19:48:50.436Z,-4.26
2023-01-21T19:53:52.972Z,-4.16
2023-01-21T19:58:55.664Z,-4.04
2023-01-21T20:04:00.635Z,-3.94
2023-01-21T20:09:05.404Z,-3.94
2023-01-21T20:14:08.081Z,-3.79
2023-01-21T20:19:14.124Z,-3.91
2023-01-21T20:24:17.798Z,-4.11
2023-01-21T20:29:22.186Z,-4.22
2023-01-21T20:34:24.953Z,-4.44
2023-01-21T20:39:27.501Z,-4.12
2023-01-21T20:44:30.181Z,-4.18
2023-01-21T20:49:32.721Z,-4.04
2023-01-21T20:54:35.408Z,-4.08
2023-01-21T20:59:37.952Z,-3.97
2023-01-21T21:04:40.509Z,-4.11
2023-01-21T21:09:43.145Z,-4.09
2023-01-21T21:14:45.680Z,-4.00
2023-01-21T21:19:48.197Z,-4.14
2023-01-21T21:24:50.854Z,-4.03
2023-01-21T21:29:56.108Z,-4.14
2023-01-21T21:34:58.686Z,-4.29
2023-01-21T21:40:01.225Z,-4.30
2023-01-21T21:45:03.871Z,-4.55
2023-01-21T21:50:06.816Z,-4.60
2023-01-21T21:55:14.530Z,-4.62
2023-01-21T22:00:18.660Z,-4.65
2023-01-21T22:05:21.250Z,-4.63
2023-01-21T22:10:23.926Z,-4.57
2023-01-21T22:15:26.500Z,-4.57
2023-01-21T22:20:29.003Z,-4.71
2023-01-21T22:25:31.604Z,-4.79
2023-01-21T22:30:34.241Z,-4.79
2023-01-21T22:35:36.893Z,-4.85
2023-01-21T22:40:40.294Z,-4.82
2023-01-21T22:45:47.469Z,-5.10
2023-01-21T22:50:55.097Z,-4.88
2023-01-21T22:56:00.993Z,-4.78
2023-01-21T23:01:04.261Z,-4.84
2023-01-21T23:06:08.447Z,-4.96
2023-01-21T23:11:12.431Z,-5.00
2023-01-21T23:16:17.817Z,-4.97
2023-01-21T23:21:22.000Z,-4.84
2023-01-21T23:26:24.620Z,-4.80
2023-01-21T23:31:27.313Z,-4.81
2023-01-21T23:36:30.414Z,-4.90
2023-01-21T23:41:33.054Z,-4.86
2023-01-21T23:46:43.674Z,-4.90
2023-01-21T23:51:47.465Z,-4.83
2023-01-21T23:56:49.988Z,-4.94
